Esperce Pauzies

FR-0722 · Alto Garona, Occitanie, Francia

METAR pasados FR-0722 · Esperce Pauzies

A continuación puedes ver los METAR de los últimos días. Selecciona un año para ver los METAR más antiguos, desde el año 2007 en adelante.

22 de junio de 2024

Hora Código Tiempo Temp. Visibilidad Cielo nuboso Viento METAR/SPECI
01:30
V
16 °C 10 km+ - 270° 270° 6 kt METAR LFBO 212330Z AUTO 27006KT CAVOK 16/14 Q1023 NOSIG
01:00
V
16 °C 10 km+ - 280° 280° 7 kt METAR LFBO 212300Z AUTO 28007KT CAVOK 16/14 Q1023 NOSIG
00:30
V
17 °C 10 km+ - 270° 270° 5 kt METAR LFBO 212230Z AUTO 27005KT CAVOK 17/14 Q1023 NOSIG
00:00
V
17 °C 10 km+ - 260° 260° 7 kt METAR LFBO 212200Z AUTO 26007KT 9999 FEW024 17/14 Q1023 NOSIG

21 de junio de 2024

Hora Código Tiempo Temp. Visibilidad Cielo nuboso Viento METAR/SPECI
23:30
V
17 °C 10 km+ - 240° 240° 4 kt METAR LFBO 212130Z AUTO 24004KT 210V290 9999 FEW030 17/14 Q1022 NOSIG
23:00
V
18 °C 10 km+ - 260° 260° 6 kt METAR LFBO 212100Z AUTO 26006KT 9999 FEW028 18/14 Q1022 NOSIG
22:30
V
18 °C 10 km+ - 280° 280° 7 kt METAR LFBO 212030Z AUTO 28007KT 9999 FEW029 18/14 Q1022 NOSIG
22:00
V
19 °C 10 km+ - 260° 260° 7 kt METAR LFBO 212000Z AUTO 26007KT 9999 FEW032 19/14 Q1021 NOSIG
21:30
V
20 °C 10 km+ - 280° 280° 9 kt METAR LFBO 211930Z AUTO 28009KT 9999 FEW038 20/14 Q1021 NOSIG
21:00
M
21 °C 10 km+ 3.000 ft 270° 270° 8 kt METAR LFBO 211900Z AUTO 27008KT 9999 BKN030 BKN036 BKN054 21/15 Q1021 NOSIG
20:30
V
21 °C 10 km+ 4.000 ft 270° 270° 11 kt METAR LFBO 211830Z AUTO 27011KT 9999 FEW028 SCT034 BKN040 21/15 Q1021 NOSIG
20:00
V
21 °C 10 km+ - 270° 270° 16 kt METAR LFBO 211800Z AUTO 27016KT 9999 FEW032 21/14 Q1021 BECMG 27005KT
19:30
V
22 °C 10 km+ 3.100 ft 270° 270° 15 kt METAR LFBO 211730Z AUTO 27015KT 9999 BKN031 BKN044 22/14 Q1021 NOSIG
19:00
V
22 °C 10 km+ 10.000 ft 270° 270° 14 kt METAR LFBO 211700Z AUTO 27014KT 9999 SCT029/// SCT046/// BKN100/// ///CB 22/15 Q1021 BECMG NSC
18:30
V
22 °C 10 km+ 9.600 ft 280° 280° 14 kt METAR LFBO 211630Z AUTO 28014KT 9999 FEW039/// BKN096/// ///CB 22/15 Q1021 BECMG NSC
18:00
V
23 °C 10 km+ 5.200 ft 270° 270° 16 kt METAR LFBO 211600Z AUTO 27016KT 9999 SCT032/// BKN052/// BKN070/// ///CB 23/15 Q1021 BECMG SCT020 BKN050
17:30
V
23 °C 10 km+ 6.800 ft 300° 300° 17 kt METAR LFBO 211530Z AUTO 30017KT 9999 FEW040/// SCT056/// BKN068/// ///CB 23/14 Q1021 BECMG SCT020 BKN050
17:00
V
21 °C 10 km+ 3.400 ft 290° 290° 15 - 27 kt METAR LFBO 211500Z AUTO 29015G27KT 250V350 9999 FEW027/// BKN034/// BKN045/// ///CB 21/14 Q1021 BECMG 28008KT SCT020 BKN050
16:30
V
23 °C 10 km+ 3.400 ft 260° 260° 14 kt METAR LFBO 211430Z AUTO 26014KT 230V290 9999 BKN034/// BKN040/// BKN046/// ///CB 23/15 Q1021 TEMPO 29015G25KT BECMG SCT020 BKN050
16:00
V
24 °C 10 km+ - 260° 260° 11 kt METAR LFBO 211400Z AUTO 26011KT 240V310 9999 FEW036/// SCT076/// ///CB 24/15 Q1020 TEMPO 29015G25KT
15:30
V
23 °C 10 km+ 8.000 ft 260° 260° 14 kt METAR LFBO 211330Z AUTO 26014KT 9999 FEW033/// SCT060/// BKN080/// ///CB 23/14 Q1021 TEMPO 29015G25KT
15:00
V
23 °C 10 km+ - 270° 270° 12 kt METAR LFBO 211300Z AUTO 27012KT 240V300 9999 FEW025/// SCT033/// ///CB 23/15 Q1021 TEMPO 29015G25KT
14:30
V
22 °C 10 km+ 4.700 ft 270° 270° 13 kt METAR LFBO 211230Z AUTO 27013KT 9999 SCT028/// BKN047/// BKN060/// ///CB 22/15 Q1021 TEMPO 29015G25KT
14:00
V
20 °C 10 km+ 3.100 ft 280° 280° 9 kt METAR LFBO 211200Z AUTO 28009KT 9999 SCT025/// BKN031/// BKN041/// ///CB 20/16 Q1021 TEMPO 29015G25KT 4000 SHRA
13:30
V
21 °C 10 km+ 4.300 ft 280° 280° 12 kt METAR LFBO 211130Z AUTO 28012KT 240V310 9999 SCT026/// BKN043/// BKN050/// ///CB 21/15 Q1021 TEMPO 29015G25KT 4000 SHRA
13:00
V
21 °C 10 km+ 5.000 ft 260° 260° 12 kt METAR LFBO 211100Z AUTO 26012KT 220V290 9999 FEW020/// SCT041/// BKN050/// ///CB 21/15 Q1021 TEMPO 29015G25KT 4000 SHRA
12:30
M
19 °C 10 km+ 1.900 ft 250° 250° 12 kt METAR LFBO 211030Z AUTO 25012KT 220V290 9999 BKN019/// BKN026/// BKN043/// ///CB 19/15 Q1021 TEMPO 29015G25KT 4000 SHRA
12:00
M
19 °C 10 km+ 1.800 ft 290° 290° 8 kt METAR LFBO 211000Z AUTO 29008KT 9999 BKN018/// BKN025/// BKN033/// ///CB 19/15 Q1021 TEMPO 29015G25KT 4000 SHRA
11:30
M
19 °C 10 km+ 2.300 ft 290° 290° 9 kt METAR LFBO 210930Z AUTO 29009KT 9999 SCT017/// BKN023/// BKN029/// ///CB 19/15 Q1021 TEMPO 29015G25KT 4000 SHRA
11:00
M
18 °C 10 km+ 1.600 ft 280° 280° 10 kt METAR LFBO 210900Z AUTO 28010KT 9999 BKN016 BKN021 BKN029 18/15 Q1021 TEMPO 29015G25KT 4000 SHRA SCT040CB
10:30
M
18 °C 10 km+ 1.600 ft 280° 280° 8 kt METAR LFBO 210830Z AUTO 28008KT 9999 BKN016 BKN025 OVC031 18/15 Q1021 TEMPO 29015G25KT 4000 SHRA SCT040CB
10:00
M
17 °C 10 km+ 1.400 ft 280° 280° 6 kt METAR LFBO 210800Z AUTO 28006KT 250V310 9999 BKN014 BKN020 17/15 Q1020 BECMG SCT018 BKN030
09:30
M
17 °C 10 km+ 1.300 ft 290° 290° 7 kt METAR LFBO 210730Z AUTO 29007KT 9999 BKN013 OVC018 17/14 Q1020 BECMG SCT018 BKN030
09:00
M
16 °C 10 km+ 1.100 ft 290° 290° 5 kt METAR LFBO 210700Z AUTO 29005KT 260V320 9999 OVC011 16/15 Q1020 BECMG SCT018 BKN030
08:30
M
16 °C 10 km+ 1.100 ft 300° 300° 7 kt METAR LFBO 210630Z AUTO 30007KT 9999 OVC011 16/14 Q1019 BECMG SCT018 BKN030
08:00
I
16 °C 10 km+ 900 ft 280° 280° 9 kt METAR LFBO 210600Z AUTO 28009KT 9999 OVC009 16/14 Q1019 BECMG SCT018 BKN030
07:30
M
15 °C 10 km+ 1.300 ft 240° 240° 3 kt METAR LFBO 210530Z AUTO 24003KT 200V270 9999 BKN013 BKN056 OVC070 15/14 Q1019 BECMG SCT012 BKN030
07:00
M
15 °C 10 km+ 1.200 ft 240° 240° 5 kt METAR LFBO 210500Z AUTO 24005KT 190V270 9999 BKN012 BKN018 BKN060 15/14 Q1019 NOSIG
06:30
V
14 °C 10 km+ 5.800 ft Var Var 3 kt METAR LFBO 210430Z AUTO VRB03KT 9999 SCT011 BKN058 BKN076 14/14 Q1019 TEMPO BKN011
06:00
M
15 °C 10 km+ 1.100 ft 200° 200° 3 kt METAR LFBO 210400Z AUTO 20003KT 160V220 9999 BKN011 15/14 Q1019 BECMG 28010KT
05:30
M
15 °C 10 km+ 1.000 ft 220° 220° 5 kt METAR LFBO 210330Z AUTO 22005KT 200V260 9999 BKN010 BKN033 BKN076 15/14 Q1019 NOSIG
05:00
V
14 °C 10 km+ - 230° 230° 4 kt METAR LFBO 210300Z AUTO 23004KT CAVOK 14/14 Q1018 TEMPO BKN011
04:30
V
14 °C 10 km+ - 240° 240° 4 kt METAR LFBO 210230Z AUTO 24004KT 210V270 CAVOK 14/13 Q1018 TEMPO BKN011
04:00
V
14 °C 10 km+ 9.200 ft 250° 250° 5 kt METAR LFBO 210200Z AUTO 25005KT 9999 FEW032 SCT062 BKN092 14/13 Q1019 TEMPO BKN011
03:30
V
14 °C 10 km+ 10.000 ft 270° 270° 3 kt METAR LFBO 210130Z AUTO 27003KT 9999 FEW036 SCT062 BKN100 14/14 Q1019 TEMPO BKN011
03:00
V
15 °C 10 km+ 8.000 ft Var Var 2 kt METAR LFBO 210100Z AUTO VRB02KT 9999 SCT041 BKN080 BKN100 15/14 Q1019 TEMPO 4000 -RADZ BKN011
02:30
V
15 °C 10 km+ 8.000 ft 290° 290° 5 kt METAR LFBO 210030Z AUTO 29005KT 9999 FEW041 BKN080 BKN098 15/14 Q1019 TEMPO 4000 -RADZ BKN011
02:00
V
15 °C 10 km+ - 280° 280° 7 kt METAR LFBO 210000Z AUTO 28007KT 9999 FEW035 SCT080 15/14 Q1019 NOSIG
01:30
V
15 °C 10 km+ - 270° 270° 8 kt METAR LFBO 202330Z AUTO 27008KT 9999 FEW034 15/14 Q1019 NOSIG
01:00
V
15 °C 10 km+ 14.000 ft 260° 260° 6 kt METAR LFBO 202300Z AUTO 26006KT 9999 FEW006 BKN140 15/14 Q1019 NOSIG
00:30
V
15 °C 10 km+ - 290° 290° 4 kt METAR LFBO 202230Z AUTO 29004KT CAVOK 15/14 Q1018 NOSIG
00:00
V
16 °C 10 km+ 10.000 ft Var Var 2 kt METAR LFBO 202200Z AUTO VRB02KT 9999 SCT038 BKN100 BKN120 16/15 Q1018 TEMPO BKN009

20 de junio de 2024

Hora Código Tiempo Temp. Visibilidad Cielo nuboso Viento METAR/SPECI
23:30
M
16 °C 10 km+ 2.500 ft 280° 280° 8 kt METAR LFBO 202130Z AUTO 28008KT 9999 FEW010 SCT020 BKN025 16/15 Q1018 TEMPO BKN009
23:00
I
16 °C 10 km+ 900 ft 280° 280° 7 kt METAR LFBO 202100Z AUTO 28007KT 220V300 9999 OVC009 16/15 Q1018 NOSIG
22:30
I
16 °C 10 km+ 900 ft 250° 250° 4 kt METAR LFBO 202030Z AUTO 25004KT 9999 OVC009 16/15 Q1018 NOSIG
22:00
I
16 °C 10 km+ 600 ft Var Var 3 kt METAR LFBO 202000Z AUTO VRB03KT 9999 OVC006 16/15 Q1018 NOSIG
21:30
I
16 °C 10 km+ 800 ft 190° 190° 4 kt METAR LFBO 201930Z AUTO 19004KT 160V220 9999 -DZ BKN008/// BKN013/// BKN022/// ///TCU 16/15 Q1017 TEMPO BKN009
21:00
I
16 °C 10 km+ 800 ft 130° 130° 6 kt METAR LFBO 201900Z AUTO 13006KT 9999 BKN008/// BKN016/// OVC100/// ///CB 16/15 Q1017 TEMPO BKN009
20:30
I
16 °C 10 km+ 800 ft 060° 060° 4 kt METAR LFBO 201830Z AUTO 06004KT 010V100 9999 -RA BKN008/// BKN014/// BKN045/// ///TCU 16/15 Q1016 TEMPO BKN009
20:00
I
16 °C 10 km+ 800 ft 300° 300° 4 kt METAR LFBO 201800Z AUTO 30004KT 260V330 9999 BKN008/// BKN012/// OVC092/// ///CB 16/15 Q1017 TEMPO BKN009
19:30
I
17 °C 10 km+ 800 ft 280° 280° 9 kt METAR LFBO 201730Z AUTO 28009KT 9999 -RA BKN008/// BKN034/// BKN045/// ///TCU 17/16 Q1018 TEMPO FEW010 BKN030
19:00
M
17 °C 10 km+ 1.100 ft 290° 290° 12 kt METAR LFBO 201700Z AUTO 29012KT 250V310 9999 -RA BKN011/// BKN028/// BKN049/// ///TCU 17/16 Q1017 TEMPO 4000 RA BKN009 FEW040CB
18:30
M
17 °C 10 km+ 2.800 ft 290° 290° 9 kt METAR LFBO 201630Z AUTO 29009KT 9999 -RA SCT012/// BKN028/// BKN042/// ///CB 17/16 Q1017 TEMPO 4000 RA BECMG FEW010 BKN030
18:00
I
17 °C 3,3 km 2.500 ft 300° 300° 10 kt METAR LFBO 201600Z AUTO 30010KT 240V350 9999 3300 RA SCT010/// SCT019/// BKN025/// ///CB 17/16 Q1017 TEMPO 4000 RA BECMG FEW010 BKN030
17:30
M
17 °C 10 km+ 1.500 ft 310° 310° 12 kt METAR LFBO 201530Z AUTO 31012KT 9999 SCT007/// BKN015/// BKN026/// ///CB 17/16 Q1017 TEMPO 4000 RA BECMG FEW010 BKN030
17:00
M
17 °C 10 km+ 2.700 ft 300° 300° 10 kt METAR LFBO 201500Z AUTO 30010KT 9999 FEW007/// SCT021/// BKN027/// ///CB 17/16 Q1017 TEMPO 4000 RA BKN009 FEW040CB
16:30
L
17 °C 900 m 700 ft 250° 250° 8 kt METAR LFBO 201430Z AUTO 25008KT 180V320 1000 0900 R14R/1200U R32L/1300N R14L/1100U R32R/1400D +RA BCFG VCTS BKN007/// BKN012/// BKN020/// ///CB 17/16 Q1018 TEMPO 4000 RA
16:00
I
17 °C 2,8 km 2.500 ft 350° 350° 8 kt METAR LFBO 201400Z AUTO 35008KT 2800 RA BR FEW014/// BKN025/// BKN036/// //////CB 17/16 Q1016 TEMPO 4000 RA BKN009 FEW040CB BECMG 28010KT
15:30
M
18 °C 5 km 4.200 ft 330° 330° 11 kt METAR LFBO 201330Z AUTO 33011KT 5000 -RA BR VCTS SCT020/// SCT025/// OVC042/// ///CB 18/16 Q1016 TEMPO RA BKN009 FEW040CB
15:00
M
19 °C 10 km+ 1.900 ft 340° 340° 11 kt METAR LFBO 201300Z AUTO 34011KT 9999 BKN019/// OVC043/// ///CB 19/15 Q1017 TEMPO 4000 RA BKN009 FEW040CB BECMG 28010KT
14:30
M
20 °C 10 km+ 1.600 ft 340° 340° 9 kt METAR LFBO 201230Z AUTO 34009KT 300V010 9999 BKN016 OVC044 20/15 Q1017 TEMPO 4000 RA BKN009 FEW040CB
14:00
M
20 °C 10 km+ 1.400 ft 330° 330° 7 kt METAR LFBO 201200Z AUTO 33007KT 310V010 9999 BKN014 BKN039 BKN066 20/16 Q1017 TEMPO 4000 RA BKN009 FEW040CB
13:30
M
19 °C 10 km+ 1.200 ft 300° 300° 5 kt METAR LFBO 201130Z AUTO 30005KT 260V340 9999 BKN012 OVC036 19/16 Q1017 TEMPO 4000 RA BECMG FEW010 BKN020 FEW040CB
13:00
M
18 °C 10 km+ 1.300 ft 320° 320° 4 kt METAR LFBO 201100Z AUTO 32004KT 250V020 9999 BKN013 OVC031 18/15 Q1017 TEMPO 4000 RA BECMG FEW010 BKN020 FEW040CB
12:30
M
19 °C 10 km+ 1.200 ft 300° 300° 7 kt METAR LFBO 201030Z AUTO 30007KT 260V330 9999 BKN012 OVC029 19/17 Q1017 TEMPO 4000 RA BECMG FEW010 BKN020 FEW040CB
12:00
I
17 °C 8 km 700 ft 290° 290° 8 kt METAR LFBO 201000Z AUTO 29008KT 260V320 8000 BKN007 BKN013 BKN019 17/16 Q1017 TEMPO 3000 RA BECMG FEW010 BKN020 FEW040CB
11:30
I
17 °C 6 km 800 ft 270° 270° 10 kt METAR LFBO 200930Z AUTO 27010KT 6000 -RADZ BKN008/// OVC016/// ///TCU 17/16 Q1017 TEMPO 3000 RA BECMG FEW010 BKN020 FEW040CB
11:00
I
17 °C 10 km+ 900 ft 270° 270° 8 kt METAR LFBO 200900Z AUTO 27008KT 9999 BKN009 OVC013 17/16 Q1017 BECMG FEW010 BKN020 FEW040CB
10:30
I
17 °C 10 km+ 800 ft 270° 270° 7 kt METAR LFBO 200830Z AUTO 27007KT 9999 OVC008 17/16 Q1017 BECMG FEW010 BKN020 FEW040CB
10:00
I
17 °C 10 km+ 700 ft 290° 290° 7 kt METAR LFBO 200800Z AUTO 29007KT 260V320 9999 BKN007 OVC017 17/16 Q1016 TEMPO 3000 RA BECMG FEW010 BKN020 FEW040CB
09:30
M
17 °C 10 km+ 1.600 ft 290° 290° 11 kt METAR LFBO 200730Z AUTO 29011KT 9999 FEW009/// OVC016/// ///CB 17/16 Q1016 TEMPO 3000 RA OVC008
09:00
M
16 °C 10 km+ 1.400 ft 260° 260° 9 kt METAR LFBO 200700Z AUTO 26009KT 9999 -DZ SCT008/// OVC014/// ///CB 16/16 Q1015 TEMPO 3000 RA OVC008
08:30
I
17 °C 10 km+ 800 ft 240° 240° 6 kt METAR LFBO 200630Z AUTO 24006KT 9999 -DZ OVC008/// ///CB 17/16 Q1015 TEMPO 3000 RA
08:00
I
16 °C 10 km+ 700 ft 250° 250° 4 kt METAR LFBO 200600Z AUTO 25004KT 220V280 9999 OVC007/// //////CB 16/15 Q1015 TEMPO 3000 RA
07:30
I
17 °C 10 km+ 700 ft 260° 260° 5 kt METAR LFBO 200530Z AUTO 26005KT 9999 OVC007/// ///CB 17/16 Q1015 BECMG OVC012
07:00
I
17 °C 10 km+ 700 ft 300° 300° 4 kt METAR LFBO 200500Z AUTO 30004KT 260V320 9999 OVC007/// ///CB 17/16 Q1015 BECMG OVC012
06:30
I
17 °C 10 km+ 800 ft 300° 300° 6 kt METAR LFBO 200430Z AUTO 30006KT 9999 BKN008/// BKN012/// BKN017/// ///CB 17/16 Q1015 BECMG OVC012
06:00
M
17 °C 10 km+ 1.000 ft 300° 300° 7 kt METAR LFBO 200400Z AUTO 30007KT 9999 BKN010/// BKN016/// OVC058/// //////TCU 17/16 Q1016 TEMPO 3000 SHRA BKN008 OVC040 FEW060CB
05:30
M
17 °C 10 km+ 1.400 ft 290° 290° 6 kt METAR LFBO 200330Z AUTO 29006KT 9999 FEW007/// OVC014/// //////TCU 17/16 Q1016 TEMPO 3000 SHRA BKN008 OVC040 FEW060CB
05:00
M
18 °C 10 km+ 1.500 ft 290° 290° 9 kt METAR LFBO 200300Z AUTO 29009KT 9999 FEW009/// OVC015/// //////TCU 18/17 Q1016 TEMPO 3000 SHRA BKN008 OVC040 FEW060CB
04:30
M
18 °C 10 km+ 1.200 ft 280° 280° 8 kt METAR LFBO 200230Z AUTO 28008KT 9999 FEW007 BKN012 BKN017 18/17 Q1015 TEMPO 3000 SHRA BKN008 OVC040 FEW060CB
04:00
M
18 °C 10 km+ 2.400 ft 280° 280° 8 kt METAR LFBO 200200Z AUTO 28008KT 9999 BKN024 OVC033 18/17 Q1016 TEMPO 3000 SHRA BKN008 OVC040 FEW060CB
03:30
M
18 °C 10 km+ 1.900 ft 280° 280° 9 kt METAR LFBO 200130Z AUTO 28009KT 9999 OVC019 18/17 Q1016 TEMPO 3000 SHRA BKN008 OVC040 FEW060CB
03:00
M
18 °C 10 km+ 1.600 ft 270° 270° 10 kt METAR LFBO 200100Z AUTO 27010KT 9999 OVC016/// //////TCU 18/18 Q1016 TEMPO 3000 SHRA BKN008 OVC040 FEW060CB
02:30
M
18 °C 10 km+ 1.400 ft 250° 250° 9 kt METAR LFBO 200030Z AUTO 25009KT 9999 FEW009/// BKN014/// BKN030/// ///CB 18/18 Q1016 TEMPO 3000 SHRA BKN008 OVC040 FEW060CB
02:00
M
18 °C 10 km+ 2.500 ft 270° 270° 8 kt METAR LFBO 200000Z AUTO 27008KT 9999 SCT018/// BKN025/// OVC066/// ///CB 18/18 Q1016 TEMPO 2000 TSRA BECMG BKN011
01:30
V
18 °C 10 km+ 6.400 ft 290° 290° 8 kt METAR LFBO 192330Z AUTO 29008KT 9999 -RA FEW009/// SCT024/// OVC064/// //////CB 18/18 Q1016 TEMPO 2000 TSRA BECMG BKN011
01:00
M
18 °C 10 km+ 1.600 ft 260° 260° 8 kt METAR LFBO 192300Z AUTO 26008KT 220V280 9999 -RA SCT009/// BKN016/// BKN031/// ///CB 18/18 Q1016 TEMPO 2000 TSRA BECMG BKN011
00:30
I
18 °C 3,7 km 1.100 ft 270° 270° 12 kt METAR LFBO 192230Z AUTO 27012KT 230V300 3700 RA BR VCTS FEW006/// BKN011/// BKN022/// //////CB 18/18 Q1016 TEMPO 2000 TSRA
00:00
L
20 °C 1,1 km 2.800 ft 200° 200° 5 kt METAR LFBO 192200Z AUTO 20005KT 170V240 9999 1100 R14R/P2000 R32L/1700D R14L/0900D R32R/P2000 TSRA FEW015/// BKN028/// OVC035/// //////CB 20/18 Q1015 TEMPO 2000 TSRA BECMG BKN011

19 de junio de 2024

Hora Código Tiempo Temp. Visibilidad Cielo nuboso Viento METAR/SPECI
23:30
V
20 °C 10 km+ 3.400 ft 230° 230° 5 kt METAR LFBO 192130Z AUTO 23005KT 200V270 9999 VCTS OVC034/// ///CB 20/17 Q1015 TEMPO 2000 TSRA BECMG BKN011
23:00
V
21 °C 10 km+ 3.500 ft 250° 250° 6 kt METAR LFBO 192100Z AUTO 25006KT 220V280 9999 FEW030 BKN035 OVC042 21/17 Q1015 TEMPO 2000 TSRA SCT050CB
22:30
V
21 °C 10 km+ 4.600 ft 270° 270° 9 kt METAR LFBO 192030Z AUTO 27009KT 9999 SCT040/// BKN046/// BKN054/// ///TCU 21/17 Q1015 TEMPO 2000 TSRA SCT050CB
22:00
V
21 °C 10 km+ 4.200 ft 270° 270° 9 kt METAR LFBO 192000Z AUTO 27009KT 9999 FEW025/// OVC042/// //////CB 21/17 Q1014 TEMPO 2000 TSRA
21:30
M
21 °C 10 km+ 2.400 ft 260° 260° 8 kt METAR LFBO 191930Z AUTO 26008KT 9999 BKN024/// BKN040/// OVC050/// ///TCU 21/17 Q1015 TEMPO 2000 TSRA SCT050CB
21:00
V
22 °C 10 km+ 3.600 ft 280° 280° 7 kt METAR LFBO 191900Z AUTO 28007KT 9999 FEW023/// BKN036/// OVC046/// //////TCU 22/18 Q1014 TEMPO 2000 TSRA SCT050CB
20:30
V
22 °C 10 km+ 3.300 ft 280° 280° 9 kt METAR LFBO 191830Z AUTO 28009KT 9999 BKN033/// BKN039/// OVC045/// //////TCU 22/18 Q1014 TEMPO 2000 TSRA SCT050CB
20:00
V
22 °C 10 km+ 3.200 ft 290° 290° 8 kt METAR LFBO 191800Z AUTO 29008KT 9999 FEW021 BKN032 BKN041 22/18 Q1014 TEMPO 2000 TSRA SCT050CB
19:30
V
23 °C 10 km+ 3.900 ft 290° 290° 9 kt METAR LFBO 191730Z AUTO 29009KT 9999 FEW028 BKN039 BKN054 23/18 Q1013 TEMPO 2000 TSRA SCT050CB
19:00
V
23 °C 10 km+ 3.600 ft 290° 290° 11 kt METAR LFBO 191700Z AUTO 29011KT 9999 SCT027 BKN036 BKN064 23/18 Q1014 TEMPO SCT030TCU
18:30
V
23 °C 10 km+ 3.400 ft 280° 280° 8 kt METAR LFBO 191630Z AUTO 28008KT 9999 SCT028 BKN034 BKN040 23/18 Q1013 TEMPO SCT030TCU
18:00
V
23 °C 10 km+ 3.400 ft 290° 290° 7 kt METAR LFBO 191600Z AUTO 29007KT 9999 FEW029 BKN034 BKN041 23/18 Q1014 TEMPO SCT030TCU
17:30
V
24 °C 10 km+ 3.100 ft 290° 290° 7 kt METAR LFBO 191530Z AUTO 29007KT 260V320 9999 FEW026 BKN031 BKN037 24/18 Q1014 TEMPO SCT030TCU
17:00
M
24 °C 10 km+ 3.000 ft 300° 300° 5 kt METAR LFBO 191500Z AUTO 30005KT 250V360 9999 SCT025 BKN030 BKN048 24/17 Q1014 TEMPO SCT030TCU
16:30
V
24 °C 10 km+ 7.400 ft 310° 310° 6 kt METAR LFBO 191430Z AUTO 31006KT 270V340 9999 FEW022 SCT054 BKN074 24/18 Q1014 TEMPO SCT030TCU
16:00
V
23 °C 10 km+ 3.100 ft 280° 280° 8 kt METAR LFBO 191400Z AUTO 28008KT 250V320 9999 SCT025 BKN031 OVC068 23/18 Q1014 TEMPO SCT030TCU
15:30
M
23 °C 10 km+ 2.400 ft 280° 280° 8 kt METAR LFBO 191330Z AUTO 28008KT 250V340 9999 BKN024 OVC062 23/18 Q1014 TEMPO SCT030TCU
15:00
M
23 °C 10 km+ 2.300 ft 280° 280° 8 kt METAR LFBO 191300Z AUTO 28008KT 9999 BKN023 BKN030 OVC062 23/18 Q1014 TEMPO SCT030TCU
14:30
M
22 °C 10 km+ 2.100 ft 280° 280° 7 kt METAR LFBO 191230Z AUTO 28007KT 240V310 9999 BKN021 BKN028 OVC041 22/18 Q1014 TEMPO SCT030TCU
14:00
V
23 °C 10 km+ 4.100 ft 270° 270° 9 kt METAR LFBO 191200Z AUTO 27009KT 240V300 9999 SCT018 BKN041 OVC058 23/18 Q1014 NOSIG
13:30
V
22 °C 10 km+ 5.800 ft 270° 270° 10 kt METAR LFBO 191130Z AUTO 27010KT 9999 FEW015 SCT020 OVC058 22/18 Q1014 NOSIG
13:00
M
22 °C 10 km+ 1.600 ft 270° 270° 8 kt METAR LFBO 191100Z AUTO 27008KT 9999 BKN016 BKN021 BKN031 22/18 Q1014 NOSIG
12:30
M
22 °C 10 km+ 1.700 ft 270° 270° 4 kt METAR LFBO 191030Z AUTO 27004KT 220V310 9999 BKN017 BKN023 OVC034 22/19 Q1014 NOSIG
12:00
M
21 °C 10 km+ 2.600 ft 280° 280° 4 kt METAR LFBO 191000Z AUTO 28004KT 250V320 9999 FEW016 BKN026 BKN032 21/19 Q1014 NOSIG
11:30
M
21 °C 10 km+ 2.300 ft 280° 280° 4 kt METAR LFBO 190930Z AUTO 28004KT 9999 FEW015 BKN023 OVC030 21/18 Q1013 NOSIG
11:00
M
22 °C 10 km+ 2.800 ft 220° 220° 3 kt METAR LFBO 190900Z AUTO 22003KT 170V250 9999 SCT019 BKN028 OVC036 22/17 Q1013 NOSIG
10:30
M
21 °C 10 km+ 1.700 ft 190° 190° 4 kt METAR LFBO 190830Z AUTO 19004KT 160V220 9999 BKN017 BKN028 BKN033 21/18 Q1013 NOSIG
10:00
M
21 °C 10 km+ 1.900 ft 180° 180° 3 kt METAR LFBO 190800Z AUTO 18003KT 120V210 9999 BKN019 OVC024 21/18 Q1013 NOSIG
09:30
M
21 °C 10 km+ 1.600 ft Var Var 2 kt METAR LFBO 190730Z AUTO VRB02KT 9999 BKN016 BKN023 OVC052 21/17 Q1013 NOSIG
09:00
V
21 °C 10 km+ 3.400 ft Var Var 2 kt METAR LFBO 190700Z AUTO VRB02KT 9999 FEW014 SCT024 BKN034 21/17 Q1013 NOSIG
08:30
V
20 °C 10 km+ 3.100 ft 280° 280° 5 kt METAR LFBO 190630Z AUTO 28005KT 240V300 9999 FEW024 BKN031 BKN048 20/17 Q1012 NOSIG
08:00
I
20 °C 4,4 km 2.800 ft 230° 230° 4 kt METAR LFBO 190600Z AUTO 23004KT 200V260 9999 4400 OVC028 20/17 Q1012 NOSIG
Cambiar esta información